Time;durP1;ratioP1;P1;durP2;ratioP2;P2;SDS_P1;SDS_P2;PMS_P1;PMS_P2;Temp;Humidity;BMP_temperature;BMP_pressure;BME280_temperature;BME280_humidity;BME280_pressure;Samples;Min_cycle;Max_cycle;Signal;HPM_P1;HPM_P2
2022/05/17 00:01:33;;;;;;;26.67;21.37;;;15.60;99.90;;;;;;5033542;28;20481;-58
2022/05/17 00:04:01;;;;;;;30.10;22.50;;;15.60;99.90;;;;;;5033906;28;20444;-58
2022/05/17 00:06:29;;;;;;;24.73;21.37;;;15.60;99.90;;;;;;5033867;28;20445;-58
2022/05/17 00:08:57;;;;;;;25.60;22.77;;;15.60;99.90;;;;;;5033894;28;20445;-59
2022/05/17 00:11:25;;;;;;;29.70;23.87;;;15.60;99.90;;;;;;5033698;28;20476;-59
2022/05/17 00:13:52;;;;;;;35.30;23.13;;;15.60;99.90;;;;;;5033690;28;20485;-59
2022/05/17 00:16:19;;;;;;;26.63;23.70;;;15.60;99.90;;;;;;5034607;28;20453;-59
2022/05/17 00:18:47;;;;;;;29.10;24.43;;;15.70;99.90;;;;;;5033635;28;20451;-59
2022/05/17 00:21:14;;;;;;;29.43;24.50;;;15.70;99.90;;;;;;5033796;28;20472;-59
2022/05/17 00:23:43;;;;;;;32.23;25.80;;;15.70;99.90;;;;;;5034034;28;20464;-60
2022/05/17 00:26:10;;;;;;;31.63;24.40;;;15.70;99.90;;;;;;5037363;28;20440;-59
2022/05/17 00:28:38;;;;;;;30.20;25.40;;;15.70;99.90;;;;;;5038150;28;20511;-59
2022/05/17 00:31:07;;;;;;;29.77;23.83;;;15.70;99.90;;;;;;5038203;28;20936;-59
2022/05/17 00:33:34;;;;;;;34.67;25.97;;;15.70;99.90;;;;;;5037609;28;20437;-59
2022/05/17 00:36:01;;;;;;;28.83;24.80;;;15.70;99.90;;;;;;5037839;28;20823;-59
2022/05/17 00:38:29;;;;;;;31.43;24.87;;;15.70;99.90;;;;;;5037863;28;20451;-59
2022/05/17 00:40:57;;;;;;;37.87;26.80;;;15.70;99.90;;;;;;5038019;28;20444;-59
2022/05/17 00:44:42;;;;;;;32.27;26.70;;;15.70;99.90;;;;;;5037769;28;20448;-59
2022/05/17 00:46:19;;;;;;;33.57;26.10;;;15.70;99.90;;;;;;5037457;28;20495;-59
2022/05/17 00:48:47;;;;;;;37.50;27.60;;;15.80;99.90;;;;;;5037920;28;20440;-59
2022/05/17 00:51:14;;;;;;;35.47;26.70;;;15.80;99.90;;;;;;5037518;28;20468;-59
2022/05/17 00:53:41;;;;;;;32.93;26.67;;;15.70;99.90;;;;;;5036918;28;20448;-60
2022/05/17 00:56:13;;;;;;;37.73;27.57;;;15.70;99.90;;;;;;5037276;28;20436;-59
2022/05/17 00:58:45;;;;;;;32.77;28.90;;;15.80;99.90;;;;;;5037631;28;20429;-59
2022/05/17 01:01:15;;;;;;;38.70;30.70;;;15.80;99.90;;;;;;5037715;28;20540;-60
2022/05/17 01:03:50;;;;;;;37.60;29.80;;;15.80;99.90;;;;;;5037259;28;20448;-59
2022/05/17 01:06:18;;;;;;;38.50;29.63;;;15.80;99.90;;;;;;5036910;28;20432;-59
2022/05/17 01:08:45;;;;;;;34.50;27.73;;;15.80;99.90;;;;;;5036992;28;20444;-58
2022/05/17 01:11:14;;;;;;;35.30;30.33;;;15.70;99.90;;;;;;5037077;28;20475;-57
2022/05/17 01:16:35;;;;;;;35.73;30.20;;;15.70;99.90;;;;;;5012587;28;20432;-59
2022/05/17 01:19:05;;;;;;;36.97;28.90;;;15.70;99.90;;;;;;5036746;28;20940;-58
2022/05/17 01:21:33;;;;;;;35.00;29.67;;;15.70;99.90;;;;;;5036931;28;20468;-58
2022/05/17 01:24:00;;;;;;;41.77;30.30;;;15.70;99.90;;;;;;5037304;28;20464;-58
2022/05/17 01:26:31;;;;;;;42.73;30.83;;;15.70;99.90;;;;;;5037124;28;20448;-58
2022/05/17 01:28:58;;;;;;;35.60;30.07;;;15.70;99.90;;;;;;5037020;28;20436;-59
2022/05/17 01:31:26;;;;;;;34.87;28.10;;;15.70;99.90;;;;;;5037273;28;20456;-59
2022/05/17 01:33:53;;;;;;;32.20;28.27;;;15.70;99.90;;;;;;5036866;28;20452;-59
2022/05/17 01:36:22;;;;;;;36.60;29.83;;;15.70;99.90;;;;;;5036179;28;20445;-59
2022/05/17 01:38:52;;;;;;;33.93;28.00;;;15.70;99.90;;;;;;5037173;28;20453;-59
2022/05/17 01:41:19;;;;;;;33.40;28.27;;;15.70;99.90;;;;;;5036718;28;20465;-58
2022/05/17 01:43:47;;;;;;;30.20;27.03;;;15.70;99.90;;;;;;5037141;28;20448;-59
2022/05/17 01:46:14;;;;;;;30.13;25.80;;;15.70;99.90;;;;;;5036971;28;20456;-58
2022/05/17 01:48:41;;;;;;;31.43;26.67;;;15.70;99.90;;;;;;5036911;28;20475;-59
2022/05/17 01:51:10;;;;;;;28.67;25.27;;;15.70;99.90;;;;;;5036426;28;20453;-58
2022/05/17 01:53:37;;;;;;;32.07;26.80;;;15.70;99.90;;;;;;5036165;28;20452;-58
2022/05/17 01:56:08;;;;;;;34.87;27.70;;;15.70;99.90;;;;;;5036409;28;20503;-59
2022/05/17 01:58:35;;;;;;;35.93;29.03;;;15.60;99.90;;;;;;5036139;28;20438;-58
2022/05/17 02:01:03;;;;;;;32.97;26.93;;;15.60;99.90;;;;;;5035937;28;20457;-60
2022/05/17 02:03:30;;;;;;;35.73;28.70;;;15.50;99.90;;;;;;5042144;22;20494;-63
2022/05/17 02:05:57;;;;;;;34.80;29.80;;;15.50;99.90;;;;;;5015388;28;20453;-62
2022/05/17 02:08:25;;;;;;;36.93;30.93;;;15.40;99.90;;;;;;5015353;28;20442;-62
2022/05/17 02:10:52;;;;;;;33.60;28.00;;;15.40;99.90;;;;;;5015407;28;20839;-62
2022/05/17 02:13:20;;;;;;;35.27;29.23;;;15.40;99.90;;;;;;5015071;28;20992;-62
2022/05/17 02:15:47;;;;;;;37.53;30.80;;;15.40;99.90;;;;;;5015033;28;20478;-64
2022/05/17 02:18:14;;;;;;;33.93;29.07;;;15.30;99.90;;;;;;5015319;28;20445;-64
2022/05/17 02:20:41;;;;;;;38.20;30.57;;;15.30;99.90;;;;;;5015384;28;20473;-63
2022/05/17 02:23:08;;;;;;;38.57;30.57;;;15.30;99.90;;;;;;5016188;28;20470;-63
2022/05/17 02:25:36;;;;;;;40.10;32.33;;;15.30;99.90;;;;;;5020799;28;20457;-63
2022/05/17 02:28:04;;;;;;;36.00;31.07;;;15.30;99.90;;;;;;5032557;28;20446;-63
2022/05/17 02:30:32;;;;;;;37.27;29.37;;;15.30;99.90;;;;;;5033209;28;20450;-63
2022/05/17 02:32:59;;;;;;;36.77;30.17;;;15.20;99.90;;;;;;5030518;28;20481;-63
2022/05/17 02:35:27;;;;;;;40.57;31.20;;;15.20;99.90;;;;;;5024147;28;20481;-63
2022/05/17 02:37:54;;;;;;;37.13;31.23;;;15.20;99.90;;;;;;5023824;28;20441;-63
2022/05/17 02:40:21;;;;;;;34.70;30.20;;;15.20;99.90;;;;;;5022973;28;20449;-64
2022/05/17 02:42:48;;;;;;;33.90;29.27;;;15.20;99.90;;;;;;5021415;28;20839;-63
2022/05/17 02:45:15;;;;;;;36.27;29.60;;;15.20;99.90;;;;;;5021083;28;20520;-63
2022/05/17 02:47:43;;;;;;;37.20;29.07;;;15.20;99.90;;;;;;5018269;28;20450;-64
2022/05/17 02:50:11;;;;;;;32.80;27.90;;;15.30;99.90;;;;;;5016808;28;20450;-63
2022/05/17 02:52:38;;;;;;;36.17;29.10;;;15.30;99.90;;;;;;5014756;28;20474;-64
2022/05/17 02:55:07;;;;;;;31.83;28.33;;;15.30;99.90;;;;;;5014341;28;20477;-64
2022/05/17 02:57:34;;;;;;;32.80;28.17;;;15.30;99.90;;;;;;5014840;28;20453;-64
2022/05/17 03:00:01;;;;;;;34.07;27.40;;;15.30;99.90;;;;;;5014563;28;20886;-63
2022/05/17 03:02:28;;;;;;;29.67;26.47;;;15.30;99.90;;;;;;5014293;28;20509;-63
2022/05/17 03:04:57;;;;;;;31.10;24.90;;;15.30;99.90;;;;;;5014469;28;20461;-63
2022/05/17 03:07:24;;;;;;;31.50;25.73;;;15.40;99.90;;;;;;5014694;28;20468;-63
2022/05/17 03:09:51;;;;;;;27.57;24.67;;;15.40;99.90;;;;;;5014447;28;20446;-64
2022/05/17 03:12:18;;;;;;;27.80;24.87;;;15.40;99.90;;;;;;5014517;28;20469;-64
2022/05/17 03:14:45;;;;;;;30.10;23.67;;;15.30;99.90;;;;;;5014230;28;20488;-64
2022/05/17 03:17:13;;;;;;;26.40;21.97;;;15.30;99.90;;;;;;5014015;28;20449;-65
2022/05/17 03:19:40;;;;;;;26.80;22.77;;;15.30;99.90;;;;;;5014049;28;20449;-64
2022/05/17 03:22:10;;;;;;;28.87;22.10;;;15.30;99.90;;;;;;5014099;28;20470;-64
2022/05/17 03:24:37;;;;;;;25.67;21.20;;;15.30;99.90;;;;;;5013793;28;20457;-64
2022/05/17 03:27:06;;;;;;;27.47;20.87;;;15.30;99.90;;;;;;5013700;28;20933;-64
2022/05/17 03:29:33;;;;;;;24.63;19.80;;;15.30;99.90;;;;;;5014057;28;20449;-64
2022/05/17 03:32:00;;;;;;;25.40;20.27;;;15.30;99.90;;;;;;5014002;28;20496;-64
2022/05/17 03:34:27;;;;;;;21.40;19.10;;;15.30;99.90;;;;;;5013865;28;20446;-64
2022/05/17 03:36:54;;;;;;;27.80;20.50;;;15.30;99.90;;;;;;5013565;28;20847;-64
2022/05/17 03:39:23;;;;;;;24.03;21.27;;;15.30;99.90;;;;;;5014043;28;20948;-64
2022/05/17 03:41:50;;;;;;;24.77;19.50;;;15.30;99.90;;;;;;5013883;28;20468;-65
2022/05/17 03:44:17;;;;;;;25.87;20.30;;;15.40;99.90;;;;;;5030854;28;20450;-65
2022/05/17 03:46:44;;;;;;;26.10;19.67;;;15.30;99.90;;;;;;5016277;28;20472;-64
2022/05/17 03:49:11;;;;;;;23.17;19.87;;;15.40;99.90;;;;;;5013578;28;20453;-63
2022/05/17 03:51:39;;;;;;;25.93;19.10;;;15.40;99.90;;;;;;5013370;28;20951;-64
2022/05/17 03:54:07;;;;;;;21.87;18.70;;;15.40;99.90;;;;;;5013281;28;20938;-64
2022/05/17 03:56:35;;;;;;;22.77;18.33;;;15.40;99.90;;;;;;5013466;28;20520;-64
2022/05/17 03:59:02;;;;;;;21.87;19.30;;;15.40;99.90;;;;;;5013253;28;20457;-63
2022/05/17 04:01:29;;;;;;;21.67;17.97;;;15.40;99.90;;;;;;5013283;28;20450;-64
2022/05/17 04:03:56;;;;;;;20.10;18.00;;;15.50;99.90;;;;;;5013467;28;20441;-63
2022/05/17 04:09:46;;;;;;;22.10;16.73;;;15.60;99.90;;;;;;5091081;27;20635;-65
2022/05/17 04:12:14;;;;;;;17.53;15.77;;;15.60;99.90;;;;;;5091199;28;20454;-64
2022/05/17 04:14:41;;;;;;;21.20;16.67;;;15.60;99.90;;;;;;5090798;28;20448;-63
2022/05/17 04:17:09;;;;;;;22.63;16.87;;;15.60;99.90;;;;;;5091316;28;20446;-64
2022/05/17 04:19:37;;;;;;;22.00;17.03;;;15.60;99.90;;;;;;5090848;28;20790;-64
2022/05/17 04:22:08;;;;;;;19.53;16.70;;;15.60;99.90;;;;;;5090702;28;20524;-64
2022/05/17 04:24:35;;;;;;;20.53;15.37;;;15.60;99.90;;;;;;5091388;28;20446;-63
2022/05/17 04:27:04;;;;;;;21.13;17.40;;;15.50;99.90;;;;;;5090350;28;20447;-63
2022/05/17 04:29:31;;;;;;;21.17;16.10;;;15.50;99.90;;;;;;5090535;28;20478;-62
2022/05/17 04:31:58;;;;;;;18.53;16.10;;;15.50;99.90;;;;;;5090443;28;20466;-63
2022/05/17 04:34:25;;;;;;;17.80;15.07;;;15.50;99.90;;;;;;5090506;28;20450;-66
2022/05/17 04:36:52;;;;;;;20.83;15.57;;;15.50;99.90;;;;;;5089875;28;20435;-65
2022/05/17 04:39:20;;;;;;;21.63;17.03;;;15.60;99.90;;;;;;5089931;28;20434;-64
2022/05/17 04:41:47;;;;;;;18.17;16.10;;;15.50;99.90;;;;;;5090304;28;20813;-64
2022/05/17 04:44:16;;;;;;;22.03;17.70;;;15.60;99.90;;;;;;5090221;28;20442;-64
2022/05/17 04:46:43;;;;;;;17.83;14.83;;;15.70;99.90;;;;;;5090206;28;20458;-65
2022/05/17 04:49:10;;;;;;;19.43;15.30;;;15.70;99.90;;;;;;5090211;28;20470;-64
2022/05/17 04:51:37;;;;;;;17.70;14.33;;;15.80;99.90;;;;;;5088694;28;20449;-65
2022/05/17 04:54:04;;;;;;;18.93;14.70;;;15.80;99.90;;;;;;5078614;28;20443;-63
2022/05/17 04:56:33;;;;;;;20.83;15.00;;;15.80;99.90;;;;;;5090111;28;20442;-63
2022/05/17 04:59:00;;;;;;;18.90;16.90;;;15.80;99.90;;;;;;5077962;28;20506;-65
2022/05/17 05:01:28;;;;;;;20.43;14.13;;;15.70;99.90;;;;;;5072420;28;20473;-64
2022/05/17 05:03:55;;;;;;;21.40;15.40;;;15.70;99.90;;;;;;5072271;28;20985;-63
2022/05/17 05:06:22;;;;;;;21.47;14.77;;;15.70;99.90;;;;;;5083932;28;20458;-64
2022/05/17 05:08:49;;;;;;;22.87;14.93;;;15.70;99.90;;;;;;5074278;28;20482;-62
2022/05/17 05:11:17;;;;;;;18.97;14.03;;;15.70;99.90;;;;;;5070300;28;20550;-63
2022/05/17 05:13:45;;;;;;;20.13;14.27;;;15.80;99.90;;;;;;5070382;28;20475;-63
2022/05/17 05:16:14;;;;;;;19.80;13.30;;;16.00;99.90;;;;;;5068935;28;20463;-63
2022/05/17 05:18:43;;;;;;;15.17;13.53;;;16.50;99.90;;;;;;5069245;28;20492;-62
2022/05/17 05:21:12;;;;;;;15.73;13.00;;;16.90;99.90;;;;;;5070302;28;20493;-63
2022/05/17 05:23:40;;;;;;;15.20;12.60;;;17.30;99.90;;;;;;5067208;28;20570;-62
2022/05/17 05:26:08;;;;;;;15.60;12.07;;;17.60;99.90;;;;;;5065191;28;20447;-63
2022/05/17 05:28:35;;;;;;;17.70;11.47;;;17.90;99.90;;;;;;5059636;28;20488;-63
2022/05/17 05:31:03;;;;;;;16.50;10.30;;;18.10;99.90;;;;;;5058215;28;20955;-64
2022/05/17 05:33:31;;;;;;;15.30;10.20;;;18.30;99.90;;;;;;5056610;28;20881;-68
2022/05/17 05:36:00;;;;;;;14.80;10.47;;;18.30;99.90;;;;;;5069061;28;20469;-62
2022/05/17 05:38:27;;;;;;;13.90;10.60;;;18.40;99.90;;;;;;5068145;28;20835;-63
2022/05/17 05:40:55;;;;;;;17.17;9.23;;;18.50;99.90;;;;;;5065772;28;20467;-62
2022/05/17 05:43:23;;;;;;;15.30;8.90;;;18.60;99.90;;;;;;5065730;28;20487;-63
2022/05/17 05:45:50;;;;;;;15.00;9.80;;;18.70;99.90;;;;;;5065880;28;20493;-63
2022/05/17 05:48:17;;;;;;;12.43;9.80;;;18.70;99.90;;;;;;5078585;28;21316;-63
2022/05/17 05:50:44;;;;;;;13.00;8.70;;;18.60;99.90;;;;;;5069020;28;20439;-63
2022/05/17 05:53:13;;;;;;;14.70;9.90;;;18.70;99.90;;;;;;5076596;28;20478;-64
2022/05/17 05:55:41;;;;;;;10.70;8.93;;;18.70;99.90;;;;;;5075414;28;20446;-62
2022/05/17 05:58:10;;;;;;;13.57;9.70;;;18.70;99.90;;;;;;5075760;28;20474;-63
2022/05/17 06:00:38;;;;;;;12.97;8.67;;;18.60;99.90;;;;;;5075933;28;20450;-62
2022/05/17 06:03:05;;;;;;;14.40;8.73;;;18.70;99.90;;;;;;5060731;28;20464;-64
2022/05/17 06:05:34;;;;;;;12.70;8.33;;;18.70;99.90;;;;;;5071601;28;20927;-63
2022/05/17 06:08:01;;;;;;;14.23;9.03;;;18.80;99.90;;;;;;5075718;28;20543;-64
2022/05/17 06:10:29;;;;;;;12.57;9.20;;;18.80;99.90;;;;;;5073360;28;20463;-63
2022/05/17 06:12:57;;;;;;;12.80;8.70;;;18.90;99.90;;;;;;5075591;28;20755;-63
2022/05/17 06:15:24;;;;;;;13.53;8.80;;;18.90;99.90;;;;;;5074514;28;20451;-64
2022/05/17 06:17:51;;;;;;;12.47;8.57;;;18.90;99.90;;;;;;5075152;28;20458;-64
2022/05/17 06:20:18;;;;;;;15.27;9.50;;;18.90;99.90;;;;;;5075385;28;20440;-64
2022/05/17 06:22:45;;;;;;;16.43;8.43;;;18.90;99.90;;;;;;5075250;28;20466;-64
2022/05/17 06:25:13;;;;;;;12.07;8.07;;;18.90;99.90;;;;;;5064928;28;20613;-66
2022/05/17 06:27:41;;;;;;;13.50;8.70;;;18.90;99.90;;;;;;5055179;28;20458;-64
2022/05/17 06:30:10;;;;;;;11.20;7.63;;;18.90;99.90;;;;;;5054610;28;20483;-64
2022/05/17 06:32:37;;;;;;;11.43;7.33;;;18.90;99.90;;;;;;5062056;28;20500;-63
2022/05/17 06:35:05;;;;;;;12.90;7.97;;;18.90;99.90;;;;;;5054908;28;20439;-64
2022/05/17 06:37:32;;;;;;;10.73;7.70;;;19.00;99.90;;;;;;5055211;28;20943;-65
2022/05/17 06:39:59;;;;;;;13.53;7.80;;;19.10;99.90;;;;;;5056256;28;20951;-64
2022/05/17 06:42:28;;;;;;;12.63;8.50;;;19.10;99.90;;;;;;5065380;28;20478;-64
2022/05/17 06:44:56;;;;;;;12.20;8.90;;;19.20;99.90;;;;;;5056367;28;20454;-62
2022/05/17 06:47:23;;;;;;;9.50;8.10;;;19.30;99.90;;;;;;5057765;28;20462;-63
2022/05/17 06:49:51;;;;;;;9.80;7.57;;;19.40;99.90;;;;;;5074094;28;20475;-63
2022/05/17 06:52:18;;;;;;;11.17;7.43;;;19.40;99.90;;;;;;5073732;28;20543;-64
2022/05/17 06:54:45;;;;;;;12.53;8.13;;;19.30;99.90;;;;;;5068646;28;20563;-65
2022/05/17 06:57:14;;;;;;;12.23;7.57;;;19.40;99.90;;;;;;5055754;28;20475;-64
2022/05/17 06:59:43;;;;;;;11.40;7.60;;;19.40;99.90;;;;;;5075334;28;20451;-62
2022/05/17 07:02:12;;;;;;;12.87;7.73;;;19.40;99.90;;;;;;5075778;28;20470;-63
2022/05/17 07:04:40;;;;;;;10.27;7.27;;;19.40;99.90;;;;;;5075629;28;20448;-66
2022/05/17 07:07:08;;;;;;;12.30;8.00;;;19.50;99.90;;;;;;5075651;28;20444;-64
2022/05/17 07:09:37;;;;;;;14.37;7.80;;;19.60;99.90;;;;;;5077616;28;20973;-63
2022/05/17 07:14:50;;;;;;;8.80;6.87;;;19.70;99.70;;;;;;5086337;28;20473;-63
2022/05/17 07:17:21;;;;;;;9.20;7.00;;;19.90;99.30;;;;;;5088194;28;20447;-64
2022/05/17 07:19:49;;;;;;;10.90;7.70;;;19.90;98.70;;;;;;5085059;28;20511;-64
2022/05/17 07:22:16;;;;;;;12.47;6.97;;;19.90;98.60;;;;;;5084308;28;20463;-64
2022/05/17 07:24:45;;;;;;;12.43;7.50;;;20.00;98.70;;;;;;5085448;28;20454;-65
2022/05/17 07:27:13;;;;;;;12.50;8.17;;;20.10;98.40;;;;;;5085389;28;20514;-65
2022/05/17 07:29:41;;;;;;;13.70;7.13;;;20.10;97.80;;;;;;5084249;28;20844;-65
2022/05/17 07:32:09;;;;;;;10.63;6.73;;;20.20;97.60;;;;;;5083228;28;20494;-65
2022/05/17 07:34:37;;;;;;;9.30;6.47;;;20.20;97.70;;;;;;5082757;28;20501;-64
2022/05/17 07:37:05;;;;;;;11.30;6.97;;;20.20;97.30;;;;;;5078199;28;20451;-65
2022/05/17 07:39:32;;;;;;;12.43;7.87;;;20.20;96.80;;;;;;5075565;28;20443;-64
2022/05/17 07:41:59;;;;;;;11.87;6.53;;;20.10;97.00;;;;;;5075371;28;20477;-65
2022/05/17 07:44:26;;;;;;;14.47;6.70;;;20.10;97.00;;;;;;5073852;28;20450;-66
2022/05/17 07:46:53;;;;;;;10.03;6.73;;;20.20;96.80;;;;;;5077405;28;20457;-64
2022/05/17 07:49:20;;;;;;;9.40;5.63;;;20.30;96.40;;;;;;5077324;28;20848;-64
2022/05/17 07:51:49;;;;;;;10.87;6.10;;;20.40;95.90;;;;;;5075785;28;20493;-65
2022/05/17 07:54:16;;;;;;;14.63;7.30;;;20.40;95.30;;;;;;5076712;28;20458;-64
2022/05/17 07:56:43;;;;;;;8.87;5.97;;;20.40;95.10;;;;;;5063409;28;20474;-63
2022/05/17 07:59:10;;;;;;;8.90;5.50;;;20.60;95.00;;;;;;5074600;28;20450;-61
2022/05/17 08:01:37;;;;;;;9.13;5.30;;;20.60;94.60;;;;;;5075079;28;20821;-63
2022/05/17 08:04:05;;;;;;;9.03;6.07;;;20.60;94.20;;;;;;5074220;28;20454;-63
2022/05/17 08:06:32;;;;;;;6.60;5.50;;;20.70;93.90;;;;;;5075364;28;20446;-63
2022/05/17 08:09:00;;;;;;;14.57;7.20;;;20.80;93.40;;;;;;5072455;28;20479;-63
2022/05/17 08:11:27;;;;;;;8.17;5.53;;;20.90;93.30;;;;;;5073621;28;20450;-63
2022/05/17 08:13:54;;;;;;;8.27;5.30;;;21.10;93.10;;;;;;5075222;28;20957;-63
2022/05/17 08:16:21;;;;;;;11.60;5.30;;;21.20;92.60;;;;;;5053862;28;20439;-62
2022/05/17 08:18:48;;;;;;;10.87;5.50;;;21.30;91.90;;;;;;5062852;28;20543;-63
2022/05/17 08:21:16;;;;;;;9.40;5.30;;;21.40;91.60;;;;;;5075285;28;20517;-62
2022/05/17 08:23:43;;;;;;;8.60;5.20;;;21.40;91.50;;;;;;5074716;28;20470;-63
2022/05/17 08:28:56;;;;;;;11.23;4.67;;;21.60;91.10;;;;;;5075038;28;20411;-65
2022/05/17 08:31:24;;;;;;;8.25;5.28;;;21.70;90.90;;;;;;5074295;28;20434;-64
2022/05/17 08:33:50;;;;;;;5.17;3.70;;;21.80;90.70;;;;;;5072388;28;20229;-63
2022/05/17 08:36:18;;;;;;;8.47;4.60;;;21.90;90.50;;;;;;5073381;28;20447;-66
2022/05/17 08:38:50;;;;;;;9.73;4.70;;;21.90;88.40;;;;;;5073339;28;20546;-66
2022/05/17 08:41:24;;;;;;;8.60;4.37;;;21.80;87.50;;;;;;5073866;28;20442;-64
2022/05/17 08:43:54;;;;;;;7.77;3.70;;;21.80;87.00;;;;;;5072809;28;20802;-65
2022/05/17 08:46:43;;;;;;;10.70;4.37;;;21.90;85.80;;;;;;5071723;28;20459;-65
2022/05/17 08:49:19;;;;;;;7.90;3.60;;;22.00;84.90;;;;;;5072615;28;20487;-63
2022/05/17 08:51:50;;;;;;;5.37;3.70;;;22.10;83.80;;;;;;5072499;28;21024;-66
2022/05/17 08:54:20;;;;;;;5.83;3.03;;;22.10;82.60;;;;;;5073203;28;20428;-65
2022/05/17 08:56:54;;;;;;;8.20;3.13;;;22.10;81.70;;;;;;5076462;28;20465;-65
2022/05/17 08:59:23;;;;;;;8.37;3.63;;;22.20;78.70;;;;;;5078855;28;20434;-67
2022/05/17 09:01:56;;;;;;;6.40;3.40;;;22.30;76.20;;;;;;5076359;28;20508;-65
2022/05/17 09:04:47;;;;;;;8.20;3.67;;;22.40;74.90;;;;;;5075346;28;20458;-64
2022/05/17 09:07:20;;;;;;;5.00;2.30;;;22.50;74.20;;;;;;5076443;28;20423;-65
2022/05/17 09:09:59;;;;;;;7.00;2.47;;;22.60;74.00;;;;;;5075475;28;20470;-64
2022/05/17 09:12:37;;;;;;;5.93;2.17;;;22.70;69.90;;;;;;5076264;28;20949;-67
2022/05/17 09:15:06;;;;;;;2.90;1.47;;;22.60;66.60;;;;;;5076430;28;20902;-62
2022/05/17 09:17:34;;;;;;;4.87;2.43;;;22.40;65.30;;;;;;5075024;28;20454;-63
2022/05/17 09:20:04;;;;;;;5.10;2.10;;;22.30;64.50;;;;;;5076364;28;20542;-64
2022/05/17 09:22:31;;;;;;;5.07;2.37;;;22.20;64.50;;;;;;5085238;28;20942;-62
2022/05/17 09:25:00;;;;;;;4.37;2.63;;;22.20;64.60;;;;;;5083802;28;20450;-64
2022/05/17 09:27:34;;;;;;;6.22;2.60;;;22.30;64.90;;;;;;5083041;28;20464;-63
2022/05/17 09:30:07;;;;;;;4.53;2.30;;;22.30;65.10;;;;;;5077601;28;20201;-66
2022/05/17 09:32:38;;;;;;;4.80;2.47;;;22.30;66.00;;;;;;5076121;28;20485;-67
2022/05/17 09:35:11;;;;;;;6.53;3.00;;;22.40;65.90;;;;;;5076419;28;20471;-63
2022/05/17 09:37:42;;;;;;;3.20;2.50;;;22.50;66.00;;;;;;5076075;28;20450;-66
2022/05/17 09:40:13;;;;;;;7.83;2.87;;;22.60;65.80;;;;;;5076485;28;20461;-67
2022/05/17 09:42:53;;;;;;;6.40;3.17;;;22.70;65.20;;;;;;5076169;28;20475;-65
2022/05/17 09:45:22;;;;;;;6.93;3.10;;;22.70;65.00;;;;;;5075774;28;20466;-66
2022/05/17 09:47:57;;;;;;;6.33;2.87;;;22.60;65.00;;;;;;5075023;28;20450;-68
2022/05/17 09:53:14;;;;;;;3.47;2.33;;;22.60;67.40;;;;;;5074811;28;20454;-67
2022/05/17 09:55:43;;;;;;;5.97;3.10;;;22.80;66.50;;;;;;5075387;28;20524;-68
2022/05/17 09:58:13;;;;;;;3.63;2.40;;;22.90;65.00;;;;;;5074770;28;20926;-65
2022/05/17 10:00:51;;;;;;;6.37;3.00;;;23.10;65.00;;;;;;5072495;28;20443;-67
2022/05/17 10:03:31;;;;;;;5.20;2.77;;;23.20;64.40;;;;;;5074469;28;20470;-66
2022/05/17 10:06:01;;;;;;;5.03;3.10;;;23.40;63.40;;;;;;5074162;28;20908;-66
2022/05/17 10:08:44;;;;;;;5.00;1.70;;;23.60;62.20;;;;;;5074768;28;20459;-65
2022/05/17 10:11:18;;;;;;;3.73;2.40;;;23.70;59.90;;;;;;5075074;28;20466;-65
2022/05/17 10:14:04;;;;;;;5.50;1.93;;;23.80;59.30;;;;;;5073952;28;20485;-66
2022/05/17 10:16:38;;;;;;;5.43;1.90;;;23.80;58.00;;;;;;5074638;28;20454;-66
2022/05/17 10:19:15;;;;;;;4.67;2.20;;;23.80;57.20;;;;;;5074868;28;20427;-65
2022/05/17 10:21:48;;;;;;;3.63;2.17;;;23.70;57.10;;;;;;5074387;28;20450;-65
2022/05/17 10:24:21;;;;;;;2.87;2.30;;;23.50;57.40;;;;;;5075011;28;20431;-66
2022/05/17 10:26:57;;;;;;;9.70;2.70;;;23.60;57.70;;;;;;5093627;22;21763;-65
2022/05/17 10:29:32;;;;;;;2.80;2.23;;;23.60;57.40;;;;;;5033372;28;20437;-67
2022/05/17 10:32:05;;;;;;;4.53;2.37;;;23.70;57.20;;;;;;5034249;28;20504;-65
2022/05/17 10:34:43;;;;;;;3.30;2.20;;;23.70;57.30;;;;;;5033854;28;20445;-68
2022/05/17 10:37:16;;;;;;;4.10;3.00;;;23.80;56.70;;;;;;5014604;28;21022;-66
2022/05/17 10:39:50;;;;;;;6.20;2.37;;;24.00;55.70;;;;;;5014666;28;20434;-67
2022/05/17 10:42:18;;;;;;;5.20;2.13;;;24.00;55.50;;;;;;5013856;28;20446;-66
2022/05/17 10:44:50;;;;;;;8.70;2.70;;;24.10;55.90;;;;;;5030871;28;20210;-66
2022/05/17 10:47:26;;;;;;;3.00;2.13;;;24.10;55.70;;;;;;5033634;28;20831;-65
2022/05/17 10:50:21;;;;;;;4.20;2.13;;;24.30;55.50;;;;;;5034046;28;20469;-66
2022/05/17 10:52:58;;;;;;;9.00;3.00;;;24.70;54.40;;;;;;5034146;28;20432;-65
2022/05/17 10:55:32;;;;;;;4.53;2.90;;;24.90;54.00;;;;;;5032854;28;20447;-66
2022/05/17 10:58:04;;;;;;;5.37;2.40;;;25.10;53.60;;;;;;5032823;28;20475;-65
2022/05/17 11:00:37;;;;;;;2.97;2.30;;;25.10;53.30;;;;;;5033928;28;20421;-66
2022/05/17 11:03:37;;;;;;;3.23;2.33;;;25.00;53.40;;;;;;5034269;28;20796;-65
2022/05/17 11:06:20;;;;;;;4.80;2.57;;;24.90;53.20;;;;;;5007975;28;20471;-64
2022/05/17 11:08:57;;;;;;;4.77;2.30;;;24.70;53.40;;;;;;5033253;28;20468;-64
2022/05/17 11:11:37;;;;;;;4.80;2.63;;;24.60;53.50;;;;;;5032152;28;20998;-64
2022/05/17 11:14:09;;;;;;;8.03;2.90;;;24.50;52.90;;;;;;5033332;28;21001;-65
2022/05/17 11:16:42;;;;;;;5.33;2.70;;;24.30;52.20;;;;;;5033376;28;20433;-65
2022/05/17 11:19:18;;;;;;;4.57;2.60;;;24.00;52.70;;;;;;5032188;28;20754;-67
2022/05/17 11:21:52;;;;;;;4.93;3.00;;;23.80;54.20;;;;;;5032925;28;20429;-67
2022/05/17 11:24:33;;;;;;;3.80;2.57;;;23.90;53.70;;;;;;5033090;28;20433;-64
2022/05/17 11:27:17;;;;;;;6.23;2.53;;;24.00;53.50;;;;;;5031854;28;20484;-65
2022/05/17 11:30:08;;;;;;;5.07;2.63;;;24.00;53.40;;;;;;5032496;28;20444;-64
2022/05/17 11:32:40;;;;;;;4.13;3.03;;;23.90;53.70;;;;;;5034255;28;20502;-64
2022/05/17 11:35:38;;;;;;;7.87;3.10;;;23.70;53.90;;;;;;5032080;28;20441;-65
2022/05/17 11:38:08;;;;;;;4.57;2.33;;;23.60;54.10;;;;;;5032870;28;20794;-65
2022/05/17 11:40:57;;;;;;;5.03;2.17;;;23.70;54.00;;;;;;5032534;28;20830;-63
2022/05/17 11:43:42;;;;;;;5.80;3.00;;;23.90;53.40;;;;;;5031746;28;20446;-66
2022/05/17 11:46:40;;;;;;;5.73;2.70;;;24.20;52.60;;;;;;5033101;28;20432;-65
2022/05/17 11:49:41;;;;;;;7.63;3.03;;;24.40;52.00;;;;;;5020441;28;20464;-65
2022/05/17 11:52:27;;;;;;;4.90;2.47;;;24.90;51.30;;;;;;5031063;28;20452;-64
2022/05/17 11:54:56;;;;;;;4.87;2.43;;;25.60;50.00;;;;;;5032322;28;20456;-66
2022/05/17 11:58:00;;;;;;;3.50;2.40;;;25.90;48.20;;;;;;5032573;28;20976;-64
2022/05/17 12:00:46;;;;;;;2.83;2.13;;;25.60;48.10;;;;;;5032045;28;20449;-64
2022/05/17 12:03:50;;;;;;;3.60;2.13;;;25.60;48.40;;;;;;5032887;28;20440;-65
2022/05/17 12:06:51;;;;;;;4.13;2.50;;;26.10;47.80;;;;;;5032228;28;20843;-65
2022/05/17 12:09:31;;;;;;;6.10;2.37;;;26.80;46.50;;;;;;5027014;28;20461;-66
2022/05/17 12:12:27;;;;;;;4.00;2.67;;;27.30;45.50;;;;;;5033290;28;20495;-66
2022/05/17 12:15:13;;;;;;;4.03;2.10;;;27.20;45.30;;;;;;5033186;28;20927;-66
2022/05/17 12:17:55;;;;;;;3.60;2.00;;;27.30;45.30;;;;;;5031420;28;20481;-66
2022/05/17 12:20:30;;;;;;;3.33;1.97;;;27.10;45.60;;;;;;5032296;28;20421;-65
2022/05/17 12:23:04;;;;;;;4.43;2.20;;;26.40;46.40;;;;;;5032658;28;20467;-65
2022/05/17 12:25:39;;;;;;;4.37;2.10;;;26.50;46.70;;;;;;5032599;28;20429;-65
2022/05/17 12:28:11;;;;;;;3.50;1.70;;;26.90;45.50;;;;;;5032271;28;20480;-66
2022/05/17 12:30:59;;;;;;;6.43;2.30;;;27.20;44.00;;;;;;5035112;28;20497;-65
2022/05/17 12:33:29;;;;;;;2.80;1.50;;;27.20;43.20;;;;;;5036276;28;20436;-66
2022/05/17 12:36:16;;;;;;;7.43;1.83;;;27.10;43.20;;;;;;5036130;28;20480;-64
2022/05/17 12:44:26;;;;;;;3.93;2.13;;;26.00;45.60;;;;;;5037201;28;20420;-64
2022/05/17 12:46:57;;;;;;;4.20;2.47;;;25.90;46.20;;;;;;5036313;28;20472;-66
2022/05/17 12:49:27;;;;;;;5.13;2.00;;;25.90;46.50;;;;;;5036376;28;20429;-65
2022/05/17 12:51:58;;;;;;;8.03;2.40;;;26.00;46.30;;;;;;5036513;28;20991;-65
2022/05/17 12:54:29;;;;;;;5.63;2.13;;;26.10;45.70;;;;;;5036554;28;20765;-67
2022/05/17 12:56:58;;;;;;;2.13;1.80;;;26.10;45.80;;;;;;5036754;28;20538;-66
2022/05/17 12:59:29;;;;;;;5.10;2.20;;;26.20;45.80;;;;;;5035938;28;20484;-66
2022/05/17 13:01:57;;;;;;;4.40;1.67;;;26.20;45.80;;;;;;5036114;28;20461;-66
2022/05/17 13:04:30;;;;;;;5.13;1.97;;;26.20;45.50;;;;;;5036058;28;20606;-65
2022/05/17 13:07:13;;;;;;;2.97;1.70;;;26.10;45.50;;;;;;5035699;28;20464;-66
2022/05/17 13:09:54;;;;;;;5.43;2.17;;;26.10;45.00;;;;;;5035842;28;20448;-67
2022/05/17 13:12:23;;;;;;;4.30;2.00;;;26.20;44.60;;;;;;5035768;28;20468;-66
2022/05/17 13:14:51;;;;;;;5.90;2.47;;;26.20;44.40;;;;;;5036465;28;20445;-66